createdAt,value
2018-07-09T00:01:06.563Z,21.00
2018-07-09T00:06:09.722Z,20.90
2018-07-09T00:11:12.775Z,20.80
2018-07-09T00:16:15.896Z,20.80
2018-07-09T00:21:19.061Z,20.70
2018-07-09T00:26:22.182Z,20.60
2018-07-09T00:31:25.284Z,20.60
2018-07-09T00:36:28.415Z,20.50
2018-07-09T00:41:31.541Z,20.50
2018-07-09T00:46:34.658Z,20.40
2018-07-09T00:51:37.795Z,20.40
2018-07-09T00:56:40.914Z,20.30
2018-07-09T01:01:44.107Z,20.30
2018-07-09T01:06:47.240Z,20.20
2018-07-09T01:12:00.395Z,20.20
2018-07-09T01:22:06.761Z,20.00
2018-07-09T01:27:09.884Z,19.90
2018-07-09T01:32:12.996Z,19.80
2018-07-09T01:37:16.107Z,19.80
2018-07-09T01:42:19.253Z,19.70
2018-07-09T01:47:22.359Z,19.70
2018-07-09T01:52:25.490Z,19.60
2018-07-09T01:57:28.672Z,19.60
2018-07-09T02:02:31.762Z,19.60
2018-07-09T02:07:34.860Z,19.50
2018-07-09T02:12:37.962Z,19.50
2018-07-09T02:17:41.081Z,19.50
2018-07-09T02:22:44.199Z,19.40
2018-07-09T02:32:50.208Z,19.30
2018-07-09T02:42:56.232Z,19.20
2018-07-09T02:47:59.348Z,19.10
2018-07-09T02:53:02.464Z,19.10
2018-07-09T02:58:09.139Z,19.10
2018-07-09T03:03:12.232Z,19.00
2018-07-09T03:13:18.263Z,18.90
2018-07-09T03:18:21.368Z,18.90
2018-07-09T03:23:24.465Z,18.80
2018-07-09T03:28:27.605Z,18.80
2018-07-09T03:33:30.712Z,18.70
2018-07-09T03:38:33.847Z,18.70
2018-07-09T03:43:36.972Z,18.70
2018-07-09T03:48:40.084Z,18.70
2018-07-09T03:53:43.176Z,18.60
2018-07-09T03:58:46.316Z,18.60
2018-07-09T04:03:49.424Z,18.60
2018-07-09T04:08:52.540Z,18.60
2018-07-09T04:13:55.664Z,18.60
2018-07-09T04:18:58.784Z,18.60
2018-07-09T04:24:01.870Z,18.60
2018-07-09T04:29:05.012Z,18.60
2018-07-09T04:34:08.194Z,18.60
2018-07-09T04:39:11.305Z,18.60
2018-07-09T04:44:14.437Z,18.60
2018-07-09T04:49:17.516Z,18.60
2018-07-09T04:54:20.722Z,18.60
2018-07-09T04:59:23.837Z,18.60
2018-07-09T05:04:26.976Z,18.70
2018-07-09T05:09:30.070Z,18.70
2018-07-09T05:14:33.168Z,18.70
2018-07-09T05:19:36.282Z,18.70
2018-07-09T05:24:39.388Z,18.80
2018-07-09T05:29:42.513Z,18.90
2018-07-09T05:34:45.641Z,18.90
2018-07-09T05:39:48.797Z,19.00
2018-07-09T05:44:51.909Z,19.10
2018-07-09T05:49:55.059Z,19.20
2018-07-09T05:54:58.205Z,19.20
2018-07-09T06:00:01.349Z,19.30
2018-07-09T06:05:04.484Z,19.40
2018-07-09T06:10:07.681Z,19.50
2018-07-09T06:15:10.805Z,19.60
2018-07-09T06:20:13.904Z,19.70
2018-07-09T06:25:17.007Z,19.80
2018-07-09T06:30:20.095Z,19.90
2018-07-09T06:35:23.213Z,20.00
2018-07-09T06:40:26.324Z,20.20
2018-07-09T06:45:29.467Z,20.20
2018-07-09T06:50:32.566Z,20.40
2018-07-09T06:55:35.673Z,20.50
2018-07-09T07:00:38.773Z,20.60
2018-07-09T07:05:41.877Z,20.70
2018-07-09T07:10:45.053Z,20.70
2018-07-09T07:15:48.289Z,20.70
2018-07-09T07:20:51.384Z,20.80
2018-07-09T07:25:54.480Z,20.90
2018-07-09T07:30:57.599Z,20.90
2018-07-09T07:36:00.748Z,21.00
2018-07-09T07:41:03.923Z,21.00
2018-07-09T07:46:07.069Z,21.00
2018-07-09T07:51:10.177Z,21.10
2018-07-09T07:56:13.313Z,21.10
2018-07-09T08:01:16.432Z,21.30
2018-07-09T08:11:47.690Z,21.60
2018-07-09T08:16:25.610Z,21.70
2018-07-09T08:21:28.745Z,21.90
2018-07-09T08:26:31.923Z,21.90
2018-07-09T08:31:35.072Z,22.00
2018-07-09T08:36:38.245Z,22.00
2018-07-09T08:41:41.555Z,22.00
2018-07-09T08:46:44.762Z,22.00
2018-07-09T08:51:47.984Z,22.10
2018-07-09T08:56:51.273Z,22.10
2018-07-09T09:01:54.393Z,22.20
2018-07-09T09:06:57.499Z,22.30
2018-07-09T09:12:00.658Z,22.40
2018-07-09T09:17:03.759Z,22.50
2018-07-09T09:22:06.892Z,22.70
2018-07-09T09:32:12.896Z,23.00
2018-07-09T09:37:16.037Z,23.30
2018-07-09T09:42:19.152Z,23.40
2018-07-09T09:47:22.365Z,23.50
2018-07-09T09:52:25.510Z,23.80
2018-07-09T09:57:28.752Z,24.00
2018-07-09T10:02:31.855Z,24.20
2018-07-09T10:07:39.298Z,24.30
2018-07-09T10:12:42.427Z,24.30
2018-07-09T10:17:45.538Z,24.40
2018-07-09T10:22:48.950Z,24.40
2018-07-09T10:27:53.901Z,24.60
2018-07-09T10:32:57.147Z,24.80
2018-07-09T10:38:00.248Z,25.00
2018-07-09T10:43:03.356Z,25.30
2018-07-09T10:48:06.541Z,25.40
2018-07-09T10:53:09.668Z,25.50
2018-07-09T10:58:12.765Z,25.40
2018-07-09T11:03:15.893Z,25.40
2018-07-09T11:08:19.058Z,25.50
2018-07-09T11:13:22.169Z,25.50
2018-07-09T11:18:25.316Z,25.60
2018-07-09T11:23:28.420Z,25.80
2018-07-09T11:28:31.712Z,25.80
2018-07-09T11:33:34.848Z,25.90
2018-07-09T11:38:37.974Z,26.10
2018-07-09T11:43:41.104Z,26.20
2018-07-09T11:48:44.348Z,26.20
2018-07-09T11:53:47.469Z,26.10
2018-07-09T11:58:50.631Z,26.10
2018-07-09T12:03:53.675Z,26.10
2018-07-09T12:08:56.801Z,26.10
2018-07-09T12:13:59.916Z,25.90
2018-07-09T12:19:03.038Z,25.90
2018-07-09T12:24:06.157Z,25.80
2018-07-09T12:29:09.503Z,25.80
2018-07-09T12:34:12.416Z,25.80
2018-07-09T12:39:15.540Z,25.80
2018-07-09T12:44:18.768Z,25.90
2018-07-09T12:54:24.765Z,26.20
2018-07-09T12:59:27.884Z,26.20
2018-07-09T13:04:31.025Z,26.10
2018-07-09T13:09:34.181Z,26.10
2018-07-09T13:14:37.401Z,26.10
2018-07-09T13:19:40.438Z,26.10
2018-07-09T13:24:43.551Z,26.10
2018-07-09T13:29:46.700Z,26.00
2018-07-09T13:34:49.837Z,26.00
2018-07-09T13:44:55.969Z,25.70
2018-07-09T13:55:02.101Z,25.40
2018-07-09T14:00:05.837Z,25.20
2018-07-09T14:05:08.948Z,25.10
2018-07-09T14:10:12.264Z,25.00
2018-07-09T14:15:15.432Z,24.90
2018-07-09T14:20:28.545Z,24.80
2018-07-09T14:25:31.685Z,24.80
2018-07-09T14:30:34.955Z,24.80
2018-07-09T14:35:38.085Z,24.90
2018-07-09T14:40:41.215Z,24.80
2018-07-09T14:45:44.337Z,24.70
2018-07-09T14:50:47.579Z,24.60
2018-07-09T14:55:50.683Z,24.40
2018-07-09T15:00:53.821Z,24.30
2018-07-09T15:05:56.921Z,24.30
2018-07-09T15:11:00.068Z,24.30
2018-07-09T15:16:03.210Z,24.10
2018-07-09T15:21:06.850Z,24.10
2018-07-09T15:26:09.913Z,24.10
2018-07-09T15:31:13.040Z,24.00
2018-07-09T15:36:16.120Z,24.00
2018-07-09T15:41:19.249Z,23.90
2018-07-09T15:46:22.380Z,23.90
2018-07-09T15:51:25.924Z,23.80
2018-07-09T15:56:29.275Z,23.70
2018-07-09T16:01:32.510Z,23.70
2018-07-09T16:06:35.677Z,23.60
2018-07-09T16:11:38.800Z,23.60
2018-07-09T16:16:41.908Z,23.60
2018-07-09T16:21:45.045Z,23.50
2018-07-09T16:26:48.179Z,23.40
2018-07-09T16:31:51.353Z,23.40
2018-07-09T16:36:54.635Z,23.30
2018-07-09T16:41:57.772Z,23.30
2018-07-09T16:47:00.957Z,23.20
2018-07-09T16:57:07.048Z,23.00
2018-07-09T17:07:13.150Z,22.70
2018-07-09T17:12:16.263Z,22.60
2018-07-09T17:17:19.397Z,22.60
2018-07-09T17:22:22.520Z,22.50
2018-07-09T17:27:25.784Z,22.50
2018-07-09T17:37:31.801Z,22.30
2018-07-09T17:42:34.958Z,22.20
2018-07-09T17:47:38.105Z,22.20
2018-07-09T17:52:41.297Z,22.10
2018-07-09T18:02:47.403Z,21.90
2018-07-09T18:07:50.484Z,21.80
2018-07-09T18:12:53.632Z,21.70
2018-07-09T18:17:56.779Z,21.70
2018-07-09T18:22:59.922Z,21.70
2018-07-09T18:28:03.037Z,21.60
2018-07-09T18:33:06.170Z,21.60
2018-07-09T18:38:09.340Z,21.50
2018-07-09T18:43:12.453Z,21.50
2018-07-09T18:48:15.607Z,21.40
2018-07-09T18:53:18.820Z,21.40
2018-07-09T18:58:22.266Z,21.40
2018-07-09T19:03:25.299Z,21.30
2018-07-09T19:08:28.408Z,21.10
2018-07-09T19:13:31.517Z,21.00
2018-07-09T19:18:46.228Z,20.90
2018-07-09T19:23:48.424Z,20.80
2018-07-09T19:28:51.030Z,20.70
2018-07-09T19:33:53.223Z,20.70
2018-07-09T19:38:55.407Z,20.60
2018-07-09T19:49:00.083Z,20.50
2018-07-09T19:54:02.251Z,20.50
2018-07-09T19:59:04.432Z,20.50
2018-07-09T20:04:06.636Z,20.50
2018-07-09T20:09:14.297Z,20.50
2018-07-09T20:14:21.929Z,20.40
2018-07-09T20:19:24.122Z,20.30
2018-07-09T20:24:26.318Z,20.30
2018-07-09T20:29:28.544Z,20.30
2018-07-09T20:34:30.726Z,20.30
2018-07-09T20:39:32.915Z,20.30
2018-07-09T20:44:35.101Z,20.20
2018-07-09T20:49:37.402Z,20.20
2018-07-09T20:54:39.609Z,20.20
2018-07-09T20:59:41.973Z,20.20
2018-07-09T21:04:44.220Z,20.20
2018-07-09T21:09:46.343Z,20.20
2018-07-09T21:14:48.570Z,20.10
2018-07-09T21:19:50.761Z,20.10
2018-07-09T21:24:52.946Z,20.10
2018-07-09T21:34:57.768Z,20.00
2018-07-09T21:39:59.940Z,20.00
2018-07-09T21:50:04.590Z,19.90
2018-07-09T21:55:06.882Z,19.80
2018-07-09T22:00:09.060Z,19.90
2018-07-09T22:05:11.239Z,19.80
2018-07-09T22:10:13.432Z,19.70
2018-07-09T22:15:15.627Z,19.60
2018-07-09T22:20:17.825Z,19.50
2018-07-09T22:25:20.005Z,19.50
2018-07-09T22:30:27.389Z,19.40
2018-07-09T22:35:31.389Z,19.40
2018-07-09T22:40:34.510Z,19.40
2018-07-09T22:45:37.608Z,19.40
2018-07-09T22:50:40.728Z,19.40
2018-07-09T22:55:55.448Z,19.40
2018-07-09T23:00:58.693Z,19.30
2018-07-09T23:06:01.840Z,19.30
2018-07-09T23:12:16.208Z,19.30
2018-07-09T23:17:30.813Z,19.30
2018-07-09T23:27:35.465Z,19.20
2018-07-09T23:32:37.668Z,19.20
2018-07-09T23:37:39.849Z,19.20
2018-07-09T23:42:42.054Z,19.20
2018-07-09T23:52:52.996Z,19.20
2018-07-09T23:58:23.831Z,19.20
